sensor_id;sensor_type;location;lat;lon;timestamp;P1;durP1;ratioP1;P2;durP2;ratioP2
35578;SDS011;21687;48.900;9.188;2022-11-20T00:01:18;21.87;;;11.33;;
35578;SDS011;21687;48.900;9.188;2022-11-20T00:03:54;20.07;;;11.40;;
35578;SDS011;21687;48.900;9.188;2022-11-20T00:06:23;21.87;;;11.57;;
35578;SDS011;21687;48.900;9.188;2022-11-20T00:08:50;21.27;;;12.97;;
35578;SDS011;21687;48.900;9.188;2022-11-20T00:11:19;20.60;;;11.63;;
35578;SDS011;21687;48.900;9.188;2022-11-20T00:13:48;25.70;;;13.40;;
35578;SDS011;21687;48.900;9.188;2022-11-20T00:16:16;21.03;;;11.43;;
35578;SDS011;21687;48.900;9.188;2022-11-20T00:18:44;20.80;;;12.47;;
35578;SDS011;21687;48.900;9.188;2022-11-20T00:21:21;22.03;;;12.53;;
35578;SDS011;21687;48.900;9.188;2022-11-20T00:23:49;20.77;;;12.53;;
35578;SDS011;21687;48.900;9.188;2022-11-20T00:26:17;21.33;;;12.60;;
35578;SDS011;21687;48.900;9.188;2022-11-20T00:28:49;21.67;;;11.93;;
35578;SDS011;21687;48.900;9.188;2022-11-20T00:31:16;19.43;;;12.20;;
35578;SDS011;21687;48.900;9.188;2022-11-20T00:33:43;22.73;;;11.77;;
35578;SDS011;21687;48.900;9.188;2022-11-20T00:36:11;21.93;;;12.03;;
35578;SDS011;21687;48.900;9.188;2022-11-20T00:38:39;23.37;;;12.73;;
35578;SDS011;21687;48.900;9.188;2022-11-20T00:41:07;25.50;;;13.03;;
35578;SDS011;21687;48.900;9.188;2022-11-20T00:43:35;20.37;;;11.97;;
35578;SDS011;21687;48.900;9.188;2022-11-20T00:48:28;23.70;;;13.23;;
35578;SDS011;21687;48.900;9.188;2022-11-20T00:50:55;21.50;;;11.97;;
35578;SDS011;21687;48.900;9.188;2022-11-20T00:53:22;22.27;;;12.13;;
35578;SDS011;21687;48.900;9.188;2022-11-20T00:58:22;19.87;;;11.67;;
35578;SDS011;21687;48.900;9.188;2022-11-20T01:00:49;20.53;;;12.43;;
35578;SDS011;21687;48.900;9.188;2022-11-20T01:03:16;22.03;;;12.50;;
35578;SDS011;21687;48.900;9.188;2022-11-20T01:05:43;27.57;;;13.80;;
35578;SDS011;21687;48.900;9.188;2022-11-20T01:08:09;24.53;;;12.67;;
35578;SDS011;21687;48.900;9.188;2022-11-20T01:10:36;25.27;;;13.67;;
35578;SDS011;21687;48.900;9.188;2022-11-20T01:13:02;21.23;;;12.20;;
35578;SDS011;21687;48.900;9.188;2022-11-20T01:15:47;23.73;;;13.07;;
35578;SDS011;21687;48.900;9.188;2022-11-20T01:18:13;27.10;;;13.70;;
35578;SDS011;21687;48.900;9.188;2022-11-20T01:20:39;24.83;;;14.00;;
35578;SDS011;21687;48.900;9.188;2022-11-20T01:23:05;22.43;;;12.93;;
35578;SDS011;21687;48.900;9.188;2022-11-20T01:25:31;26.27;;;13.20;;
35578;SDS011;21687;48.900;9.188;2022-11-20T01:27:59;25.53;;;13.63;;
35578;SDS011;21687;48.900;9.188;2022-11-20T01:30:26;27.03;;;14.10;;
35578;SDS011;21687;48.900;9.188;2022-11-20T01:32:54;24.80;;;13.13;;
35578;SDS011;21687;48.900;9.188;2022-11-20T01:35:21;24.93;;;14.30;;
35578;SDS011;21687;48.900;9.188;2022-11-20T01:37:47;24.03;;;13.57;;
35578;SDS011;21687;48.900;9.188;2022-11-20T01:40:14;23.57;;;13.57;;
35578;SDS011;21687;48.900;9.188;2022-11-20T01:42:44;31.80;;;13.23;;
35578;SDS011;21687;48.900;9.188;2022-11-20T01:48:10;24.30;;;13.23;;
35578;SDS011;21687;48.900;9.188;2022-11-20T01:50:37;24.73;;;11.97;;
35578;SDS011;21687;48.900;9.188;2022-11-20T01:53:05;24.63;;;13.17;;
35578;SDS011;21687;48.900;9.188;2022-11-20T01:55:36;23.70;;;13.37;;
35578;SDS011;21687;48.900;9.188;2022-11-20T01:58:08;31.47;;;15.93;;
35578;SDS011;21687;48.900;9.188;2022-11-20T02:00:35;24.67;;;13.30;;
35578;SDS011;21687;48.900;9.188;2022-11-20T02:03:03;23.57;;;13.00;;
35578;SDS011;21687;48.900;9.188;2022-11-20T02:05:38;22.90;;;12.27;;
35578;SDS011;21687;48.900;9.188;2022-11-20T02:08:25;23.23;;;12.40;;
35578;SDS011;21687;48.900;9.188;2022-11-20T02:10:53;22.27;;;12.60;;
35578;SDS011;21687;48.900;9.188;2022-11-20T02:13:19;21.87;;;12.40;;
35578;SDS011;21687;48.900;9.188;2022-11-20T02:16:04;23.53;;;12.40;;
35578;SDS011;21687;48.900;9.188;2022-11-20T02:18:36;23.83;;;12.53;;
35578;SDS011;21687;48.900;9.188;2022-11-20T02:23:58;21.20;;;12.13;;
35578;SDS011;21687;48.900;9.188;2022-11-20T02:26:27;21.20;;;13.00;;
35578;SDS011;21687;48.900;9.188;2022-11-20T02:28:55;18.97;;;12.17;;
35578;SDS011;21687;48.900;9.188;2022-11-20T02:31:23;18.53;;;11.47;;
35578;SDS011;21687;48.900;9.188;2022-11-20T02:33:56;17.57;;;10.53;;
35578;SDS011;21687;48.900;9.188;2022-11-20T02:36:23;14.93;;;10.30;;
35578;SDS011;21687;48.900;9.188;2022-11-20T02:38:52;14.07;;;9.73;;
35578;SDS011;21687;48.900;9.188;2022-11-20T02:41:18;16.93;;;10.53;;
35578;SDS011;21687;48.900;9.188;2022-11-20T02:43:45;15.03;;;10.13;;
35578;SDS011;21687;48.900;9.188;2022-11-20T02:46:11;17.50;;;10.07;;
35578;SDS011;21687;48.900;9.188;2022-11-20T02:48:37;14.83;;;10.20;;
35578;SDS011;21687;48.900;9.188;2022-11-20T02:51:03;15.17;;;10.10;;
35578;SDS011;21687;48.900;9.188;2022-11-20T02:53:30;14.90;;;9.67;;
35578;SDS011;21687;48.900;9.188;2022-11-20T02:55:56;15.10;;;9.67;;
35578;SDS011;21687;48.900;9.188;2022-11-20T02:58:22;14.13;;;9.23;;
35578;SDS011;21687;48.900;9.188;2022-11-20T03:00:48;14.30;;;9.20;;
35578;SDS011;21687;48.900;9.188;2022-11-20T03:03:15;13.80;;;9.13;;
35578;SDS011;21687;48.900;9.188;2022-11-20T03:05:41;11.77;;;8.47;;
35578;SDS011;21687;48.900;9.188;2022-11-20T03:08:07;11.80;;;8.50;;
35578;SDS011;21687;48.900;9.188;2022-11-20T03:13:12;11.67;;;8.37;;
35578;SDS011;21687;48.900;9.188;2022-11-20T03:15:38;10.33;;;7.80;;
35578;SDS011;21687;48.900;9.188;2022-11-20T03:18:05;10.57;;;7.77;;
35578;SDS011;21687;48.900;9.188;2022-11-20T03:20:32;10.57;;;7.20;;
35578;SDS011;21687;48.900;9.188;2022-11-20T03:22:59;12.27;;;7.33;;
35578;SDS011;21687;48.900;9.188;2022-11-20T03:25:26;10.17;;;7.50;;
35578;SDS011;21687;48.900;9.188;2022-11-20T03:27:52;9.87;;;6.70;;
35578;SDS011;21687;48.900;9.188;2022-11-20T03:30:19;12.07;;;7.13;;
35578;SDS011;21687;48.900;9.188;2022-11-20T03:32:46;8.30;;;6.13;;
35578;SDS011;21687;48.900;9.188;2022-11-20T03:35:12;7.73;;;6.33;;
35578;SDS011;21687;48.900;9.188;2022-11-20T03:37:38;8.90;;;6.47;;
35578;SDS011;21687;48.900;9.188;2022-11-20T03:40:05;11.20;;;7.17;;
35578;SDS011;21687;48.900;9.188;2022-11-20T03:42:32;9.40;;;6.60;;
35578;SDS011;21687;48.900;9.188;2022-11-20T03:45:12;10.47;;;6.47;;
35578;SDS011;21687;48.900;9.188;2022-11-20T03:47:39;7.90;;;6.17;;
35578;SDS011;21687;48.900;9.188;2022-11-20T03:50:06;6.80;;;5.83;;
35578;SDS011;21687;48.900;9.188;2022-11-20T03:52:33;7.17;;;5.83;;
35578;SDS011;21687;48.900;9.188;2022-11-20T03:54:59;9.43;;;6.63;;
35578;SDS011;21687;48.900;9.188;2022-11-20T03:57:26;8.57;;;6.03;;
35578;SDS011;21687;48.900;9.188;2022-11-20T03:59:52;8.03;;;5.30;;
35578;SDS011;21687;48.900;9.188;2022-11-20T04:02:18;6.97;;;5.60;;
35578;SDS011;21687;48.900;9.188;2022-11-20T04:04:46;6.50;;;5.07;;
35578;SDS011;21687;48.900;9.188;2022-11-20T04:07:13;7.40;;;4.70;;
35578;SDS011;21687;48.900;9.188;2022-11-20T04:09:39;4.73;;;4.30;;
35578;SDS011;21687;48.900;9.188;2022-11-20T04:12:05;6.60;;;4.70;;
35578;SDS011;21687;48.900;9.188;2022-11-20T04:14:32;4.40;;;4.00;;
35578;SDS011;21687;48.900;9.188;2022-11-20T04:16:58;5.37;;;4.70;;
35578;SDS011;21687;48.900;9.188;2022-11-20T04:19:26;5.90;;;4.20;;
35578;SDS011;21687;48.900;9.188;2022-11-20T04:21:52;5.20;;;4.10;;
35578;SDS011;21687;48.900;9.188;2022-11-20T04:24:19;5.00;;;4.03;;
35578;SDS011;21687;48.900;9.188;2022-11-20T04:26:45;4.67;;;4.10;;
35578;SDS011;21687;48.900;9.188;2022-11-20T04:29:13;5.90;;;4.07;;
35578;SDS011;21687;48.900;9.188;2022-11-20T04:31:40;5.93;;;4.33;;
35578;SDS011;21687;48.900;9.188;2022-11-20T04:34:07;4.57;;;4.17;;
35578;SDS011;21687;48.900;9.188;2022-11-20T04:36:36;4.43;;;4.03;;
35578;SDS011;21687;48.900;9.188;2022-11-20T04:39:03;5.00;;;3.80;;
35578;SDS011;21687;48.900;9.188;2022-11-20T04:41:32;4.63;;;4.20;;
35578;SDS011;21687;48.900;9.188;2022-11-20T04:44:01;5.30;;;3.83;;
35578;SDS011;21687;48.900;9.188;2022-11-20T04:46:31;6.13;;;4.13;;
35578;SDS011;21687;48.900;9.188;2022-11-20T04:48:59;7.13;;;4.60;;
35578;SDS011;21687;48.900;9.188;2022-11-20T04:51:27;5.33;;;4.77;;
35578;SDS011;21687;48.900;9.188;2022-11-20T04:53:54;5.73;;;4.77;;
35578;SDS011;21687;48.900;9.188;2022-11-20T04:56:21;4.60;;;4.20;;
35578;SDS011;21687;48.900;9.188;2022-11-20T04:58:48;7.27;;;4.30;;
35578;SDS011;21687;48.900;9.188;2022-11-20T05:01:19;5.67;;;4.93;;
35578;SDS011;21687;48.900;9.188;2022-11-20T05:03:46;6.77;;;4.73;;
35578;SDS011;21687;48.900;9.188;2022-11-20T05:06:15;4.37;;;3.97;;
35578;SDS011;21687;48.900;9.188;2022-11-20T05:08:44;4.63;;;4.23;;
35578;SDS011;21687;48.900;9.188;2022-11-20T05:11:14;5.00;;;4.53;;
35578;SDS011;21687;48.900;9.188;2022-11-20T05:13:43;4.93;;;4.07;;
35578;SDS011;21687;48.900;9.188;2022-11-20T05:16:16;4.77;;;4.27;;
35578;SDS011;21687;48.900;9.188;2022-11-20T05:18:48;5.00;;;4.50;;
35578;SDS011;21687;48.900;9.188;2022-11-20T05:21:15;6.77;;;4.83;;
35578;SDS011;21687;48.900;9.188;2022-11-20T05:23:42;6.47;;;4.60;;
35578;SDS011;21687;48.900;9.188;2022-11-20T05:26:17;4.50;;;3.73;;
35578;SDS011;21687;48.900;9.188;2022-11-20T05:28:49;5.77;;;4.30;;
35578;SDS011;21687;48.900;9.188;2022-11-20T05:31:20;5.90;;;4.33;;
35578;SDS011;21687;48.900;9.188;2022-11-20T05:33:47;8.47;;;6.00;;
35578;SDS011;21687;48.900;9.188;2022-11-20T05:36:15;6.00;;;4.77;;
35578;SDS011;21687;48.900;9.188;2022-11-20T05:38:42;4.93;;;4.47;;
35578;SDS011;21687;48.900;9.188;2022-11-20T05:41:10;5.10;;;4.00;;
35578;SDS011;21687;48.900;9.188;2022-11-20T05:43:42;7.07;;;4.20;;
35578;SDS011;21687;48.900;9.188;2022-11-20T05:46:10;5.87;;;5.27;;
35578;SDS011;21687;48.900;9.188;2022-11-20T05:48:38;6.67;;;4.40;;
35578;SDS011;21687;48.900;9.188;2022-11-20T05:51:07;6.07;;;4.70;;
35578;SDS011;21687;48.900;9.188;2022-11-20T05:53:37;4.80;;;4.40;;
35578;SDS011;21687;48.900;9.188;2022-11-20T05:56:04;5.03;;;4.30;;
35578;SDS011;21687;48.900;9.188;2022-11-20T05:58:35;4.87;;;4.10;;
35578;SDS011;21687;48.900;9.188;2022-11-20T06:01:06;4.30;;;3.90;;
35578;SDS011;21687;48.900;9.188;2022-11-20T06:03:33;4.10;;;3.73;;
35578;SDS011;21687;48.900;9.188;2022-11-20T06:06:00;4.10;;;3.67;;
35578;SDS011;21687;48.900;9.188;2022-11-20T06:08:30;4.47;;;4.03;;
35578;SDS011;21687;48.900;9.188;2022-11-20T06:10:58;4.30;;;3.90;;
35578;SDS011;21687;48.900;9.188;2022-11-20T06:13:28;7.20;;;4.50;;
35578;SDS011;21687;48.900;9.188;2022-11-20T06:15:54;4.23;;;3.83;;
35578;SDS011;21687;48.900;9.188;2022-11-20T06:18:20;4.80;;;3.60;;
35578;SDS011;21687;48.900;9.188;2022-11-20T06:20:47;4.93;;;3.77;;
35578;SDS011;21687;48.900;9.188;2022-11-20T06:23:14;5.20;;;4.17;;
35578;SDS011;21687;48.900;9.188;2022-11-20T06:25:41;3.87;;;3.57;;
35578;SDS011;21687;48.900;9.188;2022-11-20T06:28:08;4.07;;;3.13;;
35578;SDS011;21687;48.900;9.188;2022-11-20T06:30:35;4.33;;;3.93;;
35578;SDS011;21687;48.900;9.188;2022-11-20T06:33:02;5.33;;;3.60;;
35578;SDS011;21687;48.900;9.188;2022-11-20T06:35:28;4.63;;;3.27;;
35578;SDS011;21687;48.900;9.188;2022-11-20T06:37:55;4.00;;;3.57;;
35578;SDS011;21687;48.900;9.188;2022-11-20T06:40:22;4.70;;;3.73;;
35578;SDS011;21687;48.900;9.188;2022-11-20T06:42:48;4.17;;;3.37;;
35578;SDS011;21687;48.900;9.188;2022-11-20T06:45:14;4.77;;;3.53;;
35578;SDS011;21687;48.900;9.188;2022-11-20T06:47:41;4.67;;;3.67;;
35578;SDS011;21687;48.900;9.188;2022-11-20T06:50:07;3.90;;;3.50;;
35578;SDS011;21687;48.900;9.188;2022-11-20T06:52:33;3.87;;;3.47;;
35578;SDS011;21687;48.900;9.188;2022-11-20T06:55:00;4.20;;;3.80;;
35578;SDS011;21687;48.900;9.188;2022-11-20T06:57:26;3.73;;;3.33;;
35578;SDS011;21687;48.900;9.188;2022-11-20T06:59:52;7.87;;;4.23;;
35578;SDS011;21687;48.900;9.188;2022-11-20T07:02:19;5.17;;;3.50;;
35578;SDS011;21687;48.900;9.188;2022-11-20T07:04:46;4.20;;;3.70;;
35578;SDS011;21687;48.900;9.188;2022-11-20T07:07:12;7.03;;;3.60;;
35578;SDS011;21687;48.900;9.188;2022-11-20T07:09:38;6.03;;;3.57;;
35578;SDS011;21687;48.900;9.188;2022-11-20T07:12:05;4.90;;;3.70;;
35578;SDS011;21687;48.900;9.188;2022-11-20T07:14:31;3.60;;;3.30;;
35578;SDS011;21687;48.900;9.188;2022-11-20T07:16:58;2.87;;;2.67;;
35578;SDS011;21687;48.900;9.188;2022-11-20T07:19:24;3.47;;;3.00;;
35578;SDS011;21687;48.900;9.188;2022-11-20T07:21:51;3.33;;;3.10;;
35578;SDS011;21687;48.900;9.188;2022-11-20T07:24:17;3.37;;;3.07;;
35578;SDS011;21687;48.900;9.188;2022-11-20T07:26:45;3.97;;;3.57;;
35578;SDS011;21687;48.900;9.188;2022-11-20T07:29:14;3.47;;;3.17;;
35578;SDS011;21687;48.900;9.188;2022-11-20T07:31:41;3.20;;;2.90;;
35578;SDS011;21687;48.900;9.188;2022-11-20T07:34:08;4.47;;;3.73;;
35578;SDS011;21687;48.900;9.188;2022-11-20T07:36:34;3.93;;;3.17;;
35578;SDS011;21687;48.900;9.188;2022-11-20T07:39:01;3.90;;;2.90;;
35578;SDS011;21687;48.900;9.188;2022-11-20T07:41:27;3.13;;;2.83;;
35578;SDS011;21687;48.900;9.188;2022-11-20T07:43:54;2.63;;;2.43;;
35578;SDS011;21687;48.900;9.188;2022-11-20T07:46:20;2.80;;;2.60;;
35578;SDS011;21687;48.900;9.188;2022-11-20T07:48:47;3.40;;;3.10;;
35578;SDS011;21687;48.900;9.188;2022-11-20T07:51:13;3.80;;;2.90;;
35578;SDS011;21687;48.900;9.188;2022-11-20T07:53:40;3.63;;;2.83;;
35578;SDS011;21687;48.900;9.188;2022-11-20T07:56:07;3.43;;;3.13;;
35578;SDS011;21687;48.900;9.188;2022-11-20T07:58:34;3.30;;;3.00;;
35578;SDS011;21687;48.900;9.188;2022-11-20T08:01:04;3.00;;;2.70;;
35578;SDS011;21687;48.900;9.188;2022-11-20T08:03:32;3.67;;;2.53;;
35578;SDS011;21687;48.900;9.188;2022-11-20T08:05:59;5.30;;;2.30;;
35578;SDS011;21687;48.900;9.188;2022-11-20T08:08:26;4.30;;;2.90;;
35578;SDS011;21687;48.900;9.188;2022-11-20T08:10:53;3.17;;;2.87;;
35578;SDS011;21687;48.900;9.188;2022-11-20T08:13:41;3.37;;;2.70;;
35578;SDS011;21687;48.900;9.188;2022-11-20T08:16:27;5.30;;;3.37;;
35578;SDS011;21687;48.900;9.188;2022-11-20T08:18:54;4.40;;;3.13;;
35578;SDS011;21687;48.900;9.188;2022-11-20T08:21:21;5.27;;;3.60;;
35578;SDS011;21687;48.900;9.188;2022-11-20T08:23:47;3.03;;;2.73;;
35578;SDS011;21687;48.900;9.188;2022-11-20T08:26:13;3.10;;;2.80;;
35578;SDS011;21687;48.900;9.188;2022-11-20T08:28:40;3.97;;;3.10;;
35578;SDS011;21687;48.900;9.188;2022-11-20T08:31:06;4.50;;;3.00;;
35578;SDS011;21687;48.900;9.188;2022-11-20T08:33:35;3.00;;;2.70;;
35578;SDS011;21687;48.900;9.188;2022-11-20T08:36:02;2.90;;;2.60;;
35578;SDS011;21687;48.900;9.188;2022-11-20T08:38:30;2.23;;;2.07;;
35578;SDS011;21687;48.900;9.188;2022-11-20T08:41:00;1.97;;;1.87;;
35578;SDS011;21687;48.900;9.188;2022-11-20T08:43:47;2.03;;;1.83;;
35578;SDS011;21687;48.900;9.188;2022-11-20T08:46:17;2.20;;;2.00;;
35578;SDS011;21687;48.900;9.188;2022-11-20T08:48:44;1.67;;;1.57;;
35578;SDS011;21687;48.900;9.188;2022-11-20T08:51:10;1.63;;;1.53;;
35578;SDS011;21687;48.900;9.188;2022-11-20T08:53:37;1.73;;;1.63;;
35578;SDS011;21687;48.900;9.188;2022-11-20T08:56:04;1.23;;;1.20;;
35578;SDS011;21687;48.900;9.188;2022-11-20T08:58:31;1.40;;;1.30;;
35578;SDS011;21687;48.900;9.188;2022-11-20T09:00:57;1.37;;;1.27;;
35578;SDS011;21687;48.900;9.188;2022-11-20T09:03:24;2.17;;;1.40;;
35578;SDS011;21687;48.900;9.188;2022-11-20T09:05:56;1.10;;;1.10;;
35578;SDS011;21687;48.900;9.188;2022-11-20T09:08:27;1.97;;;1.40;;
35578;SDS011;21687;48.900;9.188;2022-11-20T09:10:54;1.17;;;1.07;;
35578;SDS011;21687;48.900;9.188;2022-11-20T09:13:22;1.60;;;1.50;;
35578;SDS011;21687;48.900;9.188;2022-11-20T09:15:56;3.67;;;1.67;;
35578;SDS011;21687;48.900;9.188;2022-11-20T09:18:27;2.30;;;1.60;;
35578;SDS011;21687;48.900;9.188;2022-11-20T09:21:00;3.23;;;2.57;;
35578;SDS011;21687;48.900;9.188;2022-11-20T09:23:31;2.00;;;1.90;;
35578;SDS011;21687;48.900;9.188;2022-11-20T09:26:03;1.87;;;1.77;;
35578;SDS011;21687;48.900;9.188;2022-11-20T09:28:31;1.90;;;1.80;;
35578;SDS011;21687;48.900;9.188;2022-11-20T09:30:58;1.40;;;1.30;;
35578;SDS011;21687;48.900;9.188;2022-11-20T09:33:25;2.47;;;1.80;;
35578;SDS011;21687;48.900;9.188;2022-11-20T09:35:52;1.33;;;1.23;;
35578;SDS011;21687;48.900;9.188;2022-11-20T09:38:18;1.40;;;1.30;;
35578;SDS011;21687;48.900;9.188;2022-11-20T09:40:47;1.70;;;1.60;;
35578;SDS011;21687;48.900;9.188;2022-11-20T09:48:43;1.40;;;1.30;;
35578;SDS011;21687;48.900;9.188;2022-11-20T09:51:43;1.67;;;1.57;;
35578;SDS011;21687;48.900;9.188;2022-11-20T09:54:18;1.83;;;1.43;;
35578;SDS011;21687;48.900;9.188;2022-11-20T09:56:58;1.73;;;1.60;;
35578;SDS011;21687;48.900;9.188;2022-11-20T10:02:08;2.07;;;1.87;;
35578;SDS011;21687;48.900;9.188;2022-11-20T10:04:43;1.60;;;1.50;;
35578;SDS011;21687;48.900;9.188;2022-11-20T10:07:23;1.53;;;1.30;;
35578;SDS011;21687;48.900;9.188;2022-11-20T10:10:01;1.50;;;1.40;;
35578;SDS011;21687;48.900;9.188;2022-11-20T10:12:40;1.30;;;1.30;;
35578;SDS011;21687;48.900;9.188;2022-11-20T10:15:31;2.67;;;1.50;;
35578;SDS011;21687;48.900;9.188;2022-11-20T10:18:21;2.30;;;1.50;;
35578;SDS011;21687;48.900;9.188;2022-11-20T10:26:26;2.10;;;1.97;;
35578;SDS011;21687;48.900;9.188;2022-11-20T10:31:38;2.60;;;2.40;;
35578;SDS011;21687;48.900;9.188;2022-11-20T10:34:12;2.63;;;2.00;;
35578;SDS011;21687;48.900;9.188;2022-11-20T10:36:54;1.87;;;1.60;;
35578;SDS011;21687;48.900;9.188;2022-11-20T10:39:32;1.80;;;1.60;;
35578;SDS011;21687;48.900;9.188;2022-11-20T10:42:31;2.20;;;1.50;;
35578;SDS011;21687;48.900;9.188;2022-11-20T10:45:18;3.87;;;2.40;;
35578;SDS011;21687;48.900;9.188;2022-11-20T10:48:07;1.63;;;1.53;;
35578;SDS011;21687;48.900;9.188;2022-11-20T10:53:41;1.70;;;1.60;;
35578;SDS011;21687;48.900;9.188;2022-11-20T10:56:25;2.37;;;1.80;;
35578;SDS011;21687;48.900;9.188;2022-11-20T11:01:39;2.87;;;1.97;;
35578;SDS011;21687;48.900;9.188;2022-11-20T11:04:52;3.27;;;2.07;;
35578;SDS011;21687;48.900;9.188;2022-11-20T11:06:56;2.50;;;2.30;;
35578;SDS011;21687;48.900;9.188;2022-11-20T11:09:32;2.70;;;2.50;;
35578;SDS011;21687;48.900;9.188;2022-11-20T11:14:46;3.93;;;3.43;;
35578;SDS011;21687;48.900;9.188;2022-11-20T11:17:27;3.47;;;2.80;;
35578;SDS011;21687;48.900;9.188;2022-11-20T11:22:28;4.13;;;3.17;;
35578;SDS011;21687;48.900;9.188;2022-11-20T11:24:56;5.60;;;2.97;;
35578;SDS011;21687;48.900;9.188;2022-11-20T11:27:22;2.90;;;2.70;;
35578;SDS011;21687;48.900;9.188;2022-11-20T11:29:49;5.40;;;3.07;;
35578;SDS011;21687;48.900;9.188;2022-11-20T11:32:26;4.27;;;3.37;;
35578;SDS011;21687;48.900;9.188;2022-11-20T11:34:59;3.80;;;3.43;;
35578;SDS011;21687;48.900;9.188;2022-11-20T11:37:28;8.70;;;3.33;;
35578;SDS011;21687;48.900;9.188;2022-11-20T11:40:00;5.53;;;3.20;;
35578;SDS011;21687;48.900;9.188;2022-11-20T11:42:28;3.73;;;3.00;;
35578;SDS011;21687;48.900;9.188;2022-11-20T11:44:56;5.03;;;2.77;;
35578;SDS011;21687;48.900;9.188;2022-11-20T11:47:37;5.80;;;2.50;;
35578;SDS011;21687;48.900;9.188;2022-11-20T11:52:43;4.37;;;2.00;;
35578;SDS011;21687;48.900;9.188;2022-11-20T12:00:27;3.03;;;2.07;;
35578;SDS011;21687;48.900;9.188;2022-11-20T12:05:51;4.27;;;2.00;;
35578;SDS011;21687;48.900;9.188;2022-11-20T12:08:31;4.90;;;1.93;;
35578;SDS011;21687;48.900;9.188;2022-11-20T12:14:04;2.53;;;1.70;;
35578;SDS011;21687;48.900;9.188;2022-11-20T12:16:58;2.43;;;1.60;;
35578;SDS011;21687;48.900;9.188;2022-11-20T12:19:25;1.97;;;1.43;;
35578;SDS011;21687;48.900;9.188;2022-11-20T12:22:12;1.97;;;1.73;;
35578;SDS011;21687;48.900;9.188;2022-11-20T12:25:07;5.37;;;3.07;;
35578;SDS011;21687;48.900;9.188;2022-11-20T12:30:17;1.83;;;1.63;;
35578;SDS011;21687;48.900;9.188;2022-11-20T12:44:08;2.67;;;1.60;;
35578;SDS011;21687;48.900;9.188;2022-11-20T12:52:38;3.23;;;1.80;;
35578;SDS011;21687;48.900;9.188;2022-11-20T12:58:08;2.50;;;1.30;;
35578;SDS011;21687;48.900;9.188;2022-11-20T13:00:53;1.50;;;1.30;;
35578;SDS011;21687;48.900;9.188;2022-11-20T13:03:27;1.77;;;1.27;;
35578;SDS011;21687;48.900;9.188;2022-11-20T13:08:36;3.63;;;1.90;;
35578;SDS011;21687;48.900;9.188;2022-11-20T13:19:01;1.63;;;1.53;;
35578;SDS011;21687;48.900;9.188;2022-11-20T13:21:35;1.93;;;1.57;;
35578;SDS011;21687;48.900;9.188;2022-11-20T13:24:04;1.40;;;1.30;;
35578;SDS011;21687;48.900;9.188;2022-11-20T13:29:36;4.43;;;1.73;;
35578;SDS011;21687;48.900;9.188;2022-11-20T13:32:16;2.70;;;1.70;;
35578;SDS011;21687;48.900;9.188;2022-11-20T13:34:56;1.73;;;1.37;;
35578;SDS011;21687;48.900;9.188;2022-11-20T13:37:26;1.40;;;1.30;;
35578;SDS011;21687;48.900;9.188;2022-11-20T13:40:05;1.27;;;1.17;;
35578;SDS011;21687;48.900;9.188;2022-11-20T13:42:36;4.70;;;2.97;;
35578;SDS011;21687;48.900;9.188;2022-11-20T13:45:09;4.00;;;2.50;;
35578;SDS011;21687;48.900;9.188;2022-11-20T13:47:47;6.27;;;2.60;;
35578;SDS011;21687;48.900;9.188;2022-11-20T13:50:15;1.70;;;1.60;;
35578;SDS011;21687;48.900;9.188;2022-11-20T14:01:29;3.13;;;1.90;;
35578;SDS011;21687;48.900;9.188;2022-11-20T14:03:57;2.50;;;1.37;;
35578;SDS011;21687;48.900;9.188;2022-11-20T14:06:26;3.57;;;2.10;;
35578;SDS011;21687;48.900;9.188;2022-11-20T14:08:57;2.00;;;1.60;;
35578;SDS011;21687;48.900;9.188;2022-11-20T14:11:26;1.77;;;1.20;;
35578;SDS011;21687;48.900;9.188;2022-11-20T14:16:25;1.93;;;1.50;;
35578;SDS011;21687;48.900;9.188;2022-11-20T14:18:54;2.27;;;1.40;;
35578;SDS011;21687;48.900;9.188;2022-11-20T14:21:26;3.03;;;2.00;;
35578;SDS011;21687;48.900;9.188;2022-11-20T14:24:09;4.10;;;2.53;;
35578;SDS011;21687;48.900;9.188;2022-11-20T14:26:41;3.10;;;2.00;;
35578;SDS011;21687;48.900;9.188;2022-11-20T14:29:15;2.93;;;1.60;;
35578;SDS011;21687;48.900;9.188;2022-11-20T14:31:44;1.60;;;1.33;;
35578;SDS011;21687;48.900;9.188;2022-11-20T14:34:16;4.17;;;2.43;;
35578;SDS011;21687;48.900;9.188;2022-11-20T14:36:48;2.43;;;1.30;;
35578;SDS011;21687;48.900;9.188;2022-11-20T14:39:20;2.07;;;1.60;;
35578;SDS011;21687;48.900;9.188;2022-11-20T14:41:53;2.23;;;1.43;;
35578;SDS011;21687;48.900;9.188;2022-11-20T14:44:21;2.57;;;1.60;;
35578;SDS011;21687;48.900;9.188;2022-11-20T14:46:52;2.73;;;1.73;;
35578;SDS011;21687;48.900;9.188;2022-11-20T14:49:19;4.13;;;1.80;;
35578;SDS011;21687;48.900;9.188;2022-11-20T14:51:46;2.43;;;1.90;;
35578;SDS011;21687;48.900;9.188;2022-11-20T14:54:23;3.53;;;1.90;;
35578;SDS011;21687;48.900;9.188;2022-11-20T14:56:54;1.97;;;1.57;;
35578;SDS011;21687;48.900;9.188;2022-11-20T14:59:32;2.60;;;1.77;;
35578;SDS011;21687;48.900;9.188;2022-11-20T15:04:47;2.80;;;2.20;;
35578;SDS011;21687;48.900;9.188;2022-11-20T15:07:28;4.93;;;1.80;;
35578;SDS011;21687;48.900;9.188;2022-11-20T15:10:09;7.10;;;2.10;;
35578;SDS011;21687;48.900;9.188;2022-11-20T15:12:49;3.20;;;2.40;;
35578;SDS011;21687;48.900;9.188;2022-11-20T15:15:17;5.63;;;2.33;;
35578;SDS011;21687;48.900;9.188;2022-11-20T15:18:04;18.60;;;8.50;;
35578;SDS011;21687;48.900;9.188;2022-11-20T15:20:31;107.53;;;35.33;;
35578;SDS011;21687;48.900;9.188;2022-11-20T15:22:58;31.03;;;11.47;;
35578;SDS011;21687;48.900;9.188;2022-11-20T15:25:25;20.20;;;10.60;;
35578;SDS011;21687;48.900;9.188;2022-11-20T15:27:55;159.73;;;56.87;;
35578;SDS011;21687;48.900;9.188;2022-11-20T15:30:22;60.20;;;18.07;;
35578;SDS011;21687;48.900;9.188;2022-11-20T15:32:49;76.40;;;23.83;;
35578;SDS011;21687;48.900;9.188;2022-11-20T15:35:15;28.13;;;11.57;;
35578;SDS011;21687;48.900;9.188;2022-11-20T15:37:42;9.97;;;5.73;;
35578;SDS011;21687;48.900;9.188;2022-11-20T15:40:09;11.53;;;6.23;;
35578;SDS011;21687;48.900;9.188;2022-11-20T15:42:36;29.67;;;15.23;;
35578;SDS011;21687;48.900;9.188;2022-11-20T15:45:02;18.50;;;9.17;;
35578;SDS011;21687;48.900;9.188;2022-11-20T15:47:29;10.93;;;5.63;;
35578;SDS011;21687;48.900;9.188;2022-11-20T15:49:58;12.40;;;7.20;;
35578;SDS011;21687;48.900;9.188;2022-11-20T15:52:24;5.27;;;3.47;;
35578;SDS011;21687;48.900;9.188;2022-11-20T15:54:50;7.97;;;4.40;;
35578;SDS011;21687;48.900;9.188;2022-11-20T15:57:17;6.50;;;4.67;;
35578;SDS011;21687;48.900;9.188;2022-11-20T15:59:43;10.03;;;6.13;;
35578;SDS011;21687;48.900;9.188;2022-11-20T16:02:13;9.27;;;4.97;;
35578;SDS011;21687;48.900;9.188;2022-11-20T16:04:40;9.20;;;5.83;;
35578;SDS011;21687;48.900;9.188;2022-11-20T16:07:07;9.07;;;5.37;;
35578;SDS011;21687;48.900;9.188;2022-11-20T16:09:33;6.30;;;4.17;;
35578;SDS011;21687;48.900;9.188;2022-11-20T16:11:59;5.90;;;4.00;;
35578;SDS011;21687;48.900;9.188;2022-11-20T16:14:26;10.77;;;6.57;;
35578;SDS011;21687;48.900;9.188;2022-11-20T16:17:12;8.93;;;6.03;;
35578;SDS011;21687;48.900;9.188;2022-11-20T16:19:38;8.97;;;5.67;;
35578;SDS011;21687;48.900;9.188;2022-11-20T16:22:04;6.23;;;4.37;;
35578;SDS011;21687;48.900;9.188;2022-11-20T16:24:31;5.83;;;4.70;;
35578;SDS011;21687;48.900;9.188;2022-11-20T16:26:57;7.60;;;3.70;;
35578;SDS011;21687;48.900;9.188;2022-11-20T16:29:23;5.07;;;3.47;;
35578;SDS011;21687;48.900;9.188;2022-11-20T16:31:49;9.43;;;5.27;;
35578;SDS011;21687;48.900;9.188;2022-11-20T16:34:16;8.90;;;4.00;;
35578;SDS011;21687;48.900;9.188;2022-11-20T16:36:43;6.60;;;3.87;;
35578;SDS011;21687;48.900;9.188;2022-11-20T16:39:10;4.30;;;3.10;;
35578;SDS011;21687;48.900;9.188;2022-11-20T16:41:37;5.00;;;3.10;;